Time;durP1;ratioP1;P1;durP2;ratioP2;P2;SDS_P1;SDS_P2;PMS_P1;PMS_P2;Temp;Humidity;BMP_temperature;BMP_pressure;BME280_temperature;BME280_humidity;BME280_pressure;Samples;Min_cycle;Max_cycle;Signal;HPM_P1;HPM_P2
2022/05/10 00:01:47;;;;;;;7.50;5.10;;;;;;;;;;4995190;28;20046;-82
2022/05/10 00:04:12;;;;;;;6.75;5.18;;;;;;;;;;5028368;28;20485;-81
2022/05/10 00:06:41;;;;;;;6.90;5.03;;;;;;;;;;5011630;28;20045;-81
2022/05/10 00:09:07;;;;;;;7.57;4.68;;;;;;;;;;5011621;28;20038;-82
2022/05/10 00:11:32;;;;;;;4.80;4.07;;;;;;;;;;4995070;28;20036;-82
2022/05/10 00:13:58;;;;;;;6.10;4.65;;;;;;;;;;5027654;28;20042;-82
2022/05/10 00:16:23;;;;;;;6.10;4.43;;;;;;;;;;4994951;28;20045;-82
2022/05/10 00:18:49;;;;;;;6.10;4.00;;;;;;;;;;4994866;28;20037;-82
2022/05/10 00:21:21;;;;;;;5.60;4.50;;;;;;;;;;4979178;28;20132;-82
2022/05/10 00:23:46;;;;;;;8.23;4.47;;;;;;;;;;5011392;28;20030;-81
2022/05/10 00:26:11;;;;;;;6.60;4.63;;;;;;;;;;4978623;28;20515;-82
2022/05/10 00:28:37;;;;;;;6.07;4.53;;;;;;;;;;5010897;28;20096;-82
2022/05/10 00:31:02;;;;;;;7.97;5.20;;;;;;;;;;5011073;28;20096;-81
2022/05/10 00:33:29;;;;;;;6.10;4.80;;;;;;;;;;4994725;28;20058;-82
2022/05/10 00:35:55;;;;;;;8.57;4.65;;;;;;;;;;4995046;28;20083;-81
2022/05/10 00:38:22;;;;;;;8.40;5.30;;;;;;;;;;4994864;28;20042;-81
2022/05/10 00:40:47;;;;;;;5.65;4.18;;;;;;;;;;4977871;28;20034;-81
2022/05/10 00:43:28;;;;;;;5.20;4.13;;;;;;;;;;4994381;28;20057;-82
2022/05/10 00:46:08;;;;;;;5.88;4.47;;;;;;;;;;4978694;28;20088;-81
2022/05/10 00:48:57;;;;;;;6.60;4.68;;;;;;;;;;4978605;28;20038;-82
2022/05/10 00:51:29;;;;;;;5.60;4.53;;;;;;;;;;5010868;28;20038;-81
2022/05/10 00:53:59;;;;;;;6.47;5.00;;;;;;;;;;5027514;28;20038;-82
2022/05/10 00:56:31;;;;;;;5.25;4.18;;;;;;;;;;5026870;28;20084;-82
2022/05/10 00:59:12;;;;;;;6.18;4.85;;;;;;;;;;5010858;28;20042;-82
2022/05/10 01:01:38;;;;;;;5.97;4.35;;;;;;;;;;5010563;28;20034;-81
2022/05/10 01:04:29;;;;;;;5.72;4.43;;;;;;;;;;5010952;28;20143;-81
2022/05/10 01:07:02;;;;;;;5.60;4.30;;;;;;;;;;5029467;28;20523;-82
2022/05/10 01:09:47;;;;;;;5.03;3.85;;;;;;;;;;5010850;28;20037;-82
2022/05/10 01:12:18;;;;;;;5.03;4.05;;;;;;;;;;5026452;28;20049;-81
2022/05/10 01:15:04;;;;;;;5.50;4.47;;;;;;;;;;5010529;28;20040;-82
2022/05/10 01:17:30;;;;;;;5.45;4.35;;;;;;;;;;4979351;28;20288;-81
2022/05/10 01:19:55;;;;;;;5.32;4.50;;;;;;;;;;4978130;28;20038;-82
2022/05/10 01:22:33;;;;;;;5.55;4.32;;;;;;;;;;4978119;28;20037;-81
2022/05/10 01:25:20;;;;;;;5.65;4.65;;;;;;;;;;4993909;28;20037;-82
2022/05/10 01:28:24;;;;;;;6.82;4.25;;;;;;;;;;4993923;28;20030;-81
2022/05/10 01:30:49;;;;;;;6.57;4.53;;;;;;;;;;4971722;28;20042;-82
2022/05/10 01:33:31;;;;;;;6.20;4.35;;;;;;;;;;4978163;28;20104;-82
2022/05/10 01:36:18;;;;;;;6.28;4.45;;;;;;;;;;4979183;28;20503;-81
2022/05/10 01:39:04;;;;;;;4.40;3.97;;;;;;;;;;5010428;28;20045;-82
2022/05/10 01:41:49;;;;;;;5.50;4.38;;;;;;;;;;4990171;28;20134;-81
2022/05/10 01:44:40;;;;;;;7.55;4.88;;;;;;;;;;4990641;28;20030;-81
2022/05/10 01:47:14;;;;;;;4.68;3.80;;;;;;;;;;5006424;28;20043;-81
2022/05/10 01:49:47;;;;;;;8.77;4.45;;;;;;;;;;5007233;28;20184;-83
2022/05/10 01:52:19;;;;;;;5.53;4.43;;;;;;;;;;4991474;28;20500;-83
2022/05/10 01:54:56;;;;;;;6.28;4.65;;;;;;;;;;4974680;28;20436;-82
2022/05/10 01:57:21;;;;;;;6.95;4.55;;;;;;;;;;4990554;28;20394;-82
2022/05/10 01:59:50;;;;;;;7.05;4.45;;;;;;;;;;5007067;28;20046;-83
2022/05/10 02:02:16;;;;;;;5.32;4.22;;;;;;;;;;4974205;28;20524;-83
2022/05/10 02:04:41;;;;;;;6.95;4.40;;;;;;;;;;4990502;28;20042;-83
2022/05/10 02:07:16;;;;;;;4.70;3.58;;;;;;;;;;4974394;28;20519;-83
2022/05/10 02:09:46;;;;;;;5.20;4.00;;;;;;;;;;4991111;28;20045;-82
2022/05/10 02:12:29;;;;;;;6.07;4.18;;;;;;;;;;5010244;28;20030;-83
2022/05/10 02:15:21;;;;;;;5.00;3.90;;;;;;;;;;5012996;28;20034;-82
2022/05/10 02:17:49;;;;;;;;;;;;;;;;;;4996376;28;20136;-81
2022/05/10 02:20:19;;;;;;;4.72;4.03;;;;;;;;;;5030314;28;20387;-81
2022/05/10 02:23:00;;;;;;;4.90;4.22;;;;;;;;;;5013158;28;20111;-81
2022/05/10 02:25:34;;;;;;;5.07;4.10;;;;;;;;;;4998541;28;20049;-81
2022/05/10 02:28:23;;;;;;;4.50;3.58;;;;;;;;;;4980689;28;20041;-82
2022/05/10 02:30:51;;;;;;;5.28;3.97;;;;;;;;;;5005496;28;20500;-82
2022/05/10 02:33:17;;;;;;;4.80;4.00;;;;;;;;;;4997257;28;20046;-81
2022/05/10 02:35:42;;;;;;;5.30;3.80;;;;;;;;;;5013414;28;20026;-82
2022/05/10 02:38:09;;;;;;;4.90;4.30;;;;;;;;;;4996723;28;20033;-83
2022/05/10 02:40:34;;;;;;;6.20;4.32;;;;;;;;;;4996964;28;20034;-82
2022/05/10 02:43:00;;;;;;;4.57;4.07;;;;;;;;;;4980804;28;20045;-82
2022/05/10 02:45:25;;;;;;;5.15;4.22;;;;;;;;;;4980641;28;20034;-82
2022/05/10 02:47:51;;;;;;;5.10;4.25;;;;;;;;;;4996593;28;20037;-83
2022/05/10 02:50:26;;;;;;;5.63;4.20;;;;;;;;;;4980634;28;20044;-81
2022/05/10 02:52:51;;;;;;;5.40;3.80;;;;;;;;;;4996154;28;20042;-81
2022/05/10 02:55:21;;;;;;;5.25;3.97;;;;;;;;;;5012703;28;20049;-82
2022/05/10 02:57:47;;;;;;;6.25;4.20;;;;;;;;;;4997097;28;20038;-82
2022/05/10 03:00:12;;;;;;;4.95;3.80;;;;;;;;;;5029527;28;20488;-81
2022/05/10 03:02:41;;;;;;;4.78;4.05;;;;;;;;;;4996605;28;20042;-81
2022/05/10 03:05:08;;;;;;;6.45;4.50;;;;;;;;;;4996777;28;20095;-81
2022/05/10 03:07:33;;;;;;;4.97;4.47;;;;;;;;;;5029550;28;20050;-82
2022/05/10 03:09:59;;;;;;;5.43;4.05;;;;;;;;;;5029400;28;20044;-82
2022/05/10 03:12:24;;;;;;;5.53;4.50;;;;;;;;;;5028754;28;20046;-81
2022/05/10 03:14:50;;;;;;;3.92;3.53;;;;;;;;;;5012726;28;20424;-82
2022/05/10 03:17:15;;;;;;;4.82;3.85;;;;;;;;;;5029011;28;20072;-81
2022/05/10 03:19:42;;;;;;;4.43;4.03;;;;;;;;;;5012499;28;20120;-81
2022/05/10 03:22:08;;;;;;;4.80;4.05;;;;;;;;;;5028190;28;20124;-81
2022/05/10 03:24:34;;;;;;;4.32;3.65;;;;;;;;;;4996377;28;20032;-82
2022/05/10 03:27:00;;;;;;;5.13;4.45;;;;;;;;;;5028952;28;20046;-82
2022/05/10 03:29:25;;;;;;;5.00;3.65;;;;;;;;;;5028962;28;20088;-81
2022/05/10 03:31:52;;;;;;;4.80;3.95;;;;;;;;;;5028941;28;20048;-82
2022/05/10 03:37:01;;;;;;;4.43;3.55;;;;;;;;;;5030806;28;20132;-81
2022/05/10 03:39:27;;;;;;;4.43;3.53;;;;;;;;;;5025037;28;20103;-81
2022/05/10 03:41:52;;;;;;;5.18;4.45;;;;;;;;;;4992499;28;20042;-81
2022/05/10 03:44:18;;;;;;;3.95;3.50;;;;;;;;;;4992452;28;20042;-81
2022/05/10 03:46:44;;;;;;;5.35;3.83;;;;;;;;;;4992170;28;20054;-82
2022/05/10 03:49:10;;;;;;;4.68;4.22;;;;;;;;;;4975790;28;20421;-81
2022/05/10 03:51:35;;;;;;;4.72;3.70;;;;;;;;;;5011091;28;20065;-81
2022/05/10 03:54:01;;;;;;;6.18;3.88;;;;;;;;;;5012153;28;20408;-82
2022/05/10 03:56:27;;;;;;;4.38;3.55;;;;;;;;;;5011696;28;20049;-81
2022/05/10 03:58:52;;;;;;;4.82;4.05;;;;;;;;;;5027904;28;20068;-81
2022/05/10 04:01:19;;;;;;;5.10;3.95;;;;;;;;;;4978887;28;20038;-81
2022/05/10 04:03:44;;;;;;;5.10;3.45;;;;;;;;;;5028142;28;20026;-81
2022/05/10 04:06:10;;;;;;;5.25;3.90;;;;;;;;;;5011256;28;20044;-82
2022/05/10 04:08:36;;;;;;;5.10;3.72;;;;;;;;;;5028161;28;20044;-81
2022/05/10 04:11:06;;;;;;;4.70;3.90;;;;;;;;;;4994976;28;20038;-82
2022/05/10 04:13:32;;;;;;;5.65;4.13;;;;;;;;;;5028065;28;20037;-82
2022/05/10 04:15:58;;;;;;;5.53;3.78;;;;;;;;;;4995030;28;20420;-82
2022/05/10 04:18:23;;;;;;;5.43;3.80;;;;;;;;;;4994842;28;20420;-81
2022/05/10 04:20:49;;;;;;;4.93;3.72;;;;;;;;;;4978709;28;20046;-82
2022/05/10 04:23:14;;;;;;;5.90;3.80;;;;;;;;;;5011482;28;20026;-82
2022/05/10 04:25:39;;;;;;;5.32;3.60;;;;;;;;;;4979013;28;20377;-81
2022/05/10 04:28:06;;;;;;;4.35;3.72;;;;;;;;;;4994614;28;20559;-82
2022/05/10 04:30:32;;;;;;;4.95;3.70;;;;;;;;;;4994883;28;20042;-83
2022/05/10 04:32:57;;;;;;;4.43;3.80;;;;;;;;;;4993655;28;20029;-82
2022/05/10 04:35:23;;;;;;;4.45;3.65;;;;;;;;;;5008975;28;20074;-82
2022/05/10 04:37:48;;;;;;;4.65;4.03;;;;;;;;;;4994288;28;20041;-82
2022/05/10 04:42:58;;;;;;;4.82;3.67;;;;;;;;;;4997418;28;20033;-82
2022/05/10 04:45:23;;;;;;;4.25;3.45;;;;;;;;;;4978213;28;20412;-82
2022/05/10 04:47:48;;;;;;;5.22;3.72;;;;;;;;;;4977878;28;20428;-82
2022/05/10 04:50:14;;;;;;;5.28;3.58;;;;;;;;;;4978164;28;20428;-82
2022/05/10 04:52:40;;;;;;;5.25;3.80;;;;;;;;;;4978488;28;20416;-82
2022/05/10 04:55:09;;;;;;;3.47;3.00;;;;;;;;;;5010781;28;20045;-82
2022/05/10 04:57:35;;;;;;;4.00;3.60;;;;;;;;;;5010627;28;20053;-82
2022/05/10 05:00:02;;;;;;;4.35;3.15;;;;;;;;;;5027303;28;20049;-82
2022/05/10 05:02:27;;;;;;;4.53;3.60;;;;;;;;;;4978058;28;20080;-82
2022/05/10 05:04:53;;;;;;;4.30;3.50;;;;;;;;;;5027388;28;20130;-82
2022/05/10 05:07:18;;;;;;;3.42;3.13;;;;;;;;;;5025865;28;20036;-82
2022/05/10 05:09:44;;;;;;;3.90;2.78;;;;;;;;;;5026042;28;20099;-82
2022/05/10 05:12:10;;;;;;;4.10;3.63;;;;;;;;;;5025965;28;20416;-81
2022/05/10 05:14:35;;;;;;;3.95;3.20;;;;;;;;;;5025856;28;20034;-84
2022/05/10 05:17:02;;;;;;;5.90;3.38;;;;;;;;;;4993254;28;20037;-84
2022/05/10 05:19:27;;;;;;;5.40;3.63;;;;;;;;;;4977537;28;20037;-83
2022/05/10 05:21:53;;;;;;;5.50;4.40;;;;;;;;;;4977386;28;20496;-84
2022/05/10 05:24:18;;;;;;;3.80;3.38;;;;;;;;;;4993763;28;20107;-84
2022/05/10 05:26:45;;;;;;;4.35;3.35;;;;;;;;;;4993673;28;20038;-81
2022/05/10 05:29:10;;;;;;;7.90;4.35;;;;;;;;;;4994633;28;20096;-81
2022/05/10 05:31:36;;;;;;;6.75;4.35;;;;;;;;;;4977947;28;20120;-81
2022/05/10 05:34:01;;;;;;;6.60;4.70;;;;;;;;;;4978139;28;20038;-81
2022/05/10 05:36:27;;;;;;;8.77;5.63;;;;;;;;;;5010623;28;20038;-81
2022/05/10 05:38:52;;;;;;;9.07;5.40;;;;;;;;;;4977769;28;20385;-82
2022/05/10 05:41:18;;;;;;;9.30;5.15;;;;;;;;;;4977290;28;20133;-81
2022/05/10 05:43:44;;;;;;;9.15;5.47;;;;;;;;;;4977978;28;20065;-82
2022/05/10 05:46:09;;;;;;;11.35;5.38;;;;;;;;;;4981146;28;20032;-82
2022/05/10 05:48:34;;;;;;;10.27;6.05;;;;;;;;;;4981608;28;20423;-82
2022/05/10 05:51:00;;;;;;;9.85;5.80;;;;;;;;;;4981509;28;20427;-82
2022/05/10 05:53:28;;;;;;;13.50;5.65;;;;;;;;;;4999094;28;20422;-83
2022/05/10 05:56:00;;;;;;;8.27;5.88;;;;;;;;;;4993454;28;20033;-82
2022/05/10 05:58:25;;;;;;;9.27;6.80;;;;;;;;;;4990899;28;20042;-83
2022/05/10 06:00:51;;;;;;;7.15;5.60;;;;;;;;;;5003076;28;20087;-84
2022/05/10 06:03:16;;;;;;;12.50;5.68;;;;;;;;;;5010660;28;20038;-82
2022/05/10 06:05:42;;;;;;;7.20;5.75;;;;;;;;;;4980892;28;20038;-82
2022/05/10 06:08:09;;;;;;;10.73;5.22;;;;;;;;;;4981923;28;20412;-82
2022/05/10 06:10:35;;;;;;;6.75;5.20;;;;;;;;;;4981093;28;20034;-82
2022/05/10 06:13:01;;;;;;;10.68;6.15;;;;;;;;;;4995933;28;20566;-83
2022/05/10 06:15:27;;;;;;;6.60;5.90;;;;;;;;;;4979901;28;20108;-82
2022/05/10 06:17:52;;;;;;;6.22;5.47;;;;;;;;;;5011687;28;20056;-83
2022/05/10 06:20:20;;;;;;;6.95;5.22;;;;;;;;;;5010329;28;20129;-81
2022/05/10 06:22:46;;;;;;;8.13;4.70;;;;;;;;;;4977031;28;20405;-83
2022/05/10 06:25:17;;;;;;;8.45;5.45;;;;;;;;;;5010425;28;20035;-83
2022/05/10 06:27:43;;;;;;;8.55;5.30;;;;;;;;;;5036523;28;20488;-82
2022/05/10 06:30:10;;;;;;;6.40;4.78;;;;;;;;;;5010216;28;20413;-82
2022/05/10 06:32:35;;;;;;;11.00;5.03;;;;;;;;;;4963629;28;20029;-82
2022/05/10 06:35:01;;;;;;;7.85;4.90;;;;;;;;;;4982158;28;20040;-82
2022/05/10 06:40:12;;;;;;;7.15;4.15;;;;;;;;;;5012197;28;20030;-82
2022/05/10 06:42:37;;;;;;;8.00;4.97;;;;;;;;;;5010000;28;20046;-82
2022/05/10 06:45:08;;;;;;;8.70;4.32;;;;;;;;;;5009483;28;20042;-82
2022/05/10 06:47:35;;;;;;;6.78;4.47;;;;;;;;;;5010292;28;20421;-82
2022/05/10 06:50:00;;;;;;;6.68;4.13;;;;;;;;;;4993515;28;20121;-82
2022/05/10 06:52:25;;;;;;;7.30;4.40;;;;;;;;;;5019078;28;20044;-82
2022/05/10 06:54:51;;;;;;;6.90;4.20;;;;;;;;;;5029227;28;20488;-82
2022/05/10 06:57:16;;;;;;;10.25;4.68;;;;;;;;;;5027680;28;20038;-82
2022/05/10 06:59:43;;;;;;;8.50;4.28;;;;;;;;;;5012564;28;20046;-82
2022/05/10 07:02:08;;;;;;;6.07;4.30;;;;;;;;;;4980812;28;20068;-82
2022/05/10 07:04:33;;;;;;;5.95;3.90;;;;;;;;;;5029136;28;20041;-82
2022/05/10 07:06:59;;;;;;;7.20;4.97;;;;;;;;;;5012579;28;20038;-82
2022/05/10 07:09:24;;;;;;;7.05;4.15;;;;;;;;;;5029199;28;20046;-82
2022/05/10 07:11:50;;;;;;;8.13;4.05;;;;;;;;;;4979653;28;20396;-82
2022/05/10 07:14:15;;;;;;;7.88;4.22;;;;;;;;;;5012048;28;20105;-82
2022/05/10 07:16:40;;;;;;;5.88;4.65;;;;;;;;;;4979867;28;20034;-82
2022/05/10 07:19:06;;;;;;;4.75;3.67;;;;;;;;;;4996549;28;20096;-82
2022/05/10 07:21:31;;;;;;;6.07;3.50;;;;;;;;;;4996156;28;20053;-82
2022/05/10 07:23:57;;;;;;;5.22;3.80;;;;;;;;;;5012152;28;20041;-82
2022/05/10 07:26:23;;;;;;;7.25;3.65;;;;;;;;;;4979846;28;20041;-82
2022/05/10 07:28:48;;;;;;;5.60;3.65;;;;;;;;;;4995782;28;20044;-82
2022/05/10 07:31:14;;;;;;;5.95;3.70;;;;;;;;;;4999310;28;20030;-82
2022/05/10 07:33:39;;;;;;;5.88;3.40;;;;;;;;;;4990479;28;20249;-82
2022/05/10 07:38:48;;;;;;;5.07;3.53;;;;;;;;;;5012104;28;20120;-82
2022/05/10 07:41:14;;;;;;;6.45;4.07;;;;;;;;;;4996689;28;20125;-81
2022/05/10 07:43:39;;;;;;;5.97;3.40;;;;;;;;;;4995869;28;20125;-81
2022/05/10 07:46:05;;;;;;;8.45;3.85;;;;;;;;;;4995516;28;20125;-82
2022/05/10 07:48:31;;;;;;;8.43;3.83;;;;;;;;;;5005191;28;20034;-81
2022/05/10 07:50:56;;;;;;;9.23;3.60;;;;;;;;;;4977504;28;20547;-81
2022/05/10 07:53:22;;;;;;;5.53;3.03;;;;;;;;;;5010105;28;20046;-82
2022/05/10 07:55:47;;;;;;;6.47;2.97;;;;;;;;;;5001204;28;20018;-82
2022/05/10 07:58:13;;;;;;;4.72;2.97;;;;;;;;;;5011192;28;20038;-82
2022/05/10 08:00:39;;;;;;;5.65;3.15;;;;;;;;;;5008377;28;20038;-81
2022/05/10 08:03:12;;;;;;;4.88;3.42;;;;;;;;;;4959685;28;20532;-82
2022/05/10 08:05:38;;;;;;;6.82;3.35;;;;;;;;;;4996126;28;20029;-81
2022/05/10 08:08:04;;;;;;;5.10;3.50;;;;;;;;;;4982131;28;20030;-82
2022/05/10 08:10:29;;;;;;;5.20;3.08;;;;;;;;;;4982534;28;20053;-80
2022/05/10 08:12:57;;;;;;;6.45;2.92;;;;;;;;;;4994394;28;20045;-80
2022/05/10 08:15:23;;;;;;;7.00;2.88;;;;;;;;;;5011381;28;20077;-80
2022/05/10 08:17:48;;;;;;;5.15;3.28;;;;;;;;;;4978565;28;20407;-81
2022/05/10 08:20:14;;;;;;;8.05;3.83;;;;;;;;;;4978688;28;20038;-81
2022/05/10 08:22:39;;;;;;;5.63;3.58;;;;;;;;;;4978931;28;20057;-82
2022/05/10 08:25:05;;;;;;;7.53;4.50;;;;;;;;;;4995207;28;20109;-82
2022/05/10 08:27:30;;;;;;;11.98;5.38;;;;;;;;;;4994802;28;20446;-82
2022/05/10 08:29:56;;;;;;;9.00;3.60;;;;;;;;;;4978978;28;20041;-83
2022/05/10 08:32:22;;;;;;;7.43;4.18;;;;;;;;;;4978599;28;20459;-83
2022/05/10 08:34:47;;;;;;;9.40;4.80;;;;;;;;;;5011037;28;20044;-83
2022/05/10 08:37:12;;;;;;;6.90;4.97;;;;;;;;;;5011072;28;20037;-81
2022/05/10 08:39:38;;;;;;;6.97;4.82;;;;;;;;;;4978354;28;20144;-80
2022/05/10 08:42:20;;;;;;;11.77;5.18;;;;;;;;;;4978290;28;20030;-80
2022/05/10 08:44:47;;;;;;;;;;;;;;;;;;4978695;28;20038;-81
2022/05/10 08:47:12;;;;;;;10.70;4.85;;;;;;;;;;5027037;28;19936;-80
2022/05/10 08:49:43;;;;;;;11.75;5.07;;;;;;;;;;5010401;28;20042;-80
2022/05/10 08:52:08;;;;;;;8.40;4.28;;;;;;;;;;5027461;28;20084;-82
2022/05/10 08:54:35;;;;;;;8.40;4.60;;;;;;;;;;5025502;28;20506;-80
2022/05/10 08:57:03;;;;;;;8.32;4.68;;;;;;;;;;5008928;28;20041;-80
2022/05/10 08:59:59;;;;;;;7.18;4.15;;;;;;;;;;4994620;28;20037;-80
2022/05/10 09:02:41;;;;;;;8.98;4.70;;;;;;;;;;5010804;28;20033;-82
2022/05/10 09:05:28;;;;;;;6.93;4.32;;;;;;;;;;4995897;28;20045;-82
2022/05/10 09:08:05;;;;;;;8.82;4.18;;;;;;;;;;5010244;28;20085;-83
2022/05/10 09:10:39;;;;;;;8.13;3.45;;;;;;;;;;5010808;28;20049;-82
2022/05/10 09:13:11;;;;;;;6.80;3.83;;;;;;;;;;4994057;28;20404;-82
2022/05/10 09:15:38;;;;;;;6.43;3.50;;;;;;;;;;4994565;28;20030;-82
2022/05/10 09:18:08;;;;;;;9.32;3.65;;;;;;;;;;4978075;28;20408;-82
2022/05/10 09:20:35;;;;;;;6.15;4.00;;;;;;;;;;4983154;28;20034;-82
2022/05/10 09:23:14;;;;;;;5.72;3.35;;;;;;;;;;5001026;28;20049;-83
2022/05/10 09:25:41;;;;;;;3.72;2.95;;;;;;;;;;5001058;28;20030;-82
2022/05/10 09:28:33;;;;;;;6.63;3.30;;;;;;;;;;4984734;28;20048;-82
2022/05/10 09:34:46;;;;;;;4.82;3.60;;;;;;;;;;5017355;28;20034;-83
2022/05/10 09:37:36;;;;;;;4.70;3.55;;;;;;;;;;5003037;28;20061;-82
2022/05/10 09:40:09;;;;;;;5.60;3.30;;;;;;;;;;5000818;28;20080;-82
2022/05/10 09:42:39;;;;;;;5.38;3.42;;;;;;;;;;5000094;28;20030;-81
2022/05/10 09:45:11;;;;;;;5.60;3.45;;;;;;;;;;5000277;28;20430;-82
2022/05/10 09:47:37;;;;;;;5.22;3.60;;;;;;;;;;5001200;28;20870;-82
2022/05/10 09:50:15;;;;;;;5.00;3.30;;;;;;;;;;4984719;28;20073;-82
2022/05/10 09:52:41;;;;;;;4.10;2.60;;;;;;;;;;4984518;28;20107;-82
2022/05/10 09:55:09;;;;;;;5.47;3.45;;;;;;;;;;5016701;28;20034;-82
2022/05/10 09:57:38;;;;;;;4.80;2.92;;;;;;;;;;5000182;28;20060;-82
2022/05/10 10:00:17;;;;;;;4.57;2.97;;;;;;;;;;5033547;28;20037;-80
2022/05/10 10:02:42;;;;;;;3.75;2.72;;;;;;;;;;5018389;28;20105;-80
2022/05/10 10:05:28;;;;;;;4.05;2.65;;;;;;;;;;5000549;28;20112;-80
2022/05/10 10:07:55;;;;;;;4.25;2.88;;;;;;;;;;5033891;28;20066;-82
2022/05/10 10:10:30;;;;;;;4.57;2.88;;;;;;;;;;5000803;28;20041;-82
2022/05/10 10:12:56;;;;;;;4.32;3.10;;;;;;;;;;5032480;28;20109;-82
2022/05/10 10:15:36;;;;;;;3.60;2.65;;;;;;;;;;5000280;28;20483;-83
2022/05/10 10:18:06;;;;;;;3.30;2.50;;;;;;;;;;5016008;28;20527;-83
2022/05/10 10:20:46;;;;;;;4.32;2.88;;;;;;;;;;4984298;28;20038;-83
2022/05/10 10:23:35;;;;;;;6.30;2.67;;;;;;;;;;4983875;28;20172;-82
2022/05/10 10:26:50;;;;;;;3.00;2.15;;;;;;;;;;4984054;28;20042;-82
2022/05/10 10:29:19;;;;;;;5.13;2.92;;;;;;;;;;4999556;28;20061;-83
2022/05/10 10:32:12;;;;;;;7.28;4.00;;;;;;;;;;4981939;28;20117;-80
2022/05/10 10:34:42;;;;;;;4.50;3.30;;;;;;;;;;5005609;28;20052;-80
2022/05/10 10:37:10;;;;;;;3.78;2.97;;;;;;;;;;4980387;28;20046;-80
2022/05/10 10:39:44;;;;;;;5.47;3.17;;;;;;;;;;4997149;28;20045;-80
2022/05/10 10:42:15;;;;;;;5.45;3.20;;;;;;;;;;4981495;28;20034;-82
2022/05/10 10:44:43;;;;;;;4.43;3.22;;;;;;;;;;4980674;28;20026;-82
2022/05/10 10:47:21;;;;;;;4.68;3.05;;;;;;;;;;4979108;28;20037;-82
2022/05/10 10:50:08;;;;;;;4.88;2.95;;;;;;;;;;4996586;28;20046;-82
2022/05/10 10:52:34;;;;;;;3.80;2.42;;;;;;;;;;4996808;28;20030;-80
2022/05/10 10:55:00;;;;;;;3.60;2.58;;;;;;;;;;5012993;28;20459;-79
2022/05/10 10:57:34;;;;;;;4.18;2.83;;;;;;;;;;4996382;28;20034;-80
2022/05/10 11:00:07;;;;;;;4.25;2.70;;;;;;;;;;5013004;28;20508;-80
2022/05/10 11:03:04;;;;;;;4.82;2.58;;;;;;;;;;5012859;28;20042;-80
2022/05/10 11:06:10;;;;;;;5.32;2.45;;;;;;;;;;4996713;28;20036;-82
2022/05/10 11:09:05;;;;;;;4.45;2.78;;;;;;;;;;5013204;28;20037;-83
2022/05/10 11:11:39;;;;;;;3.92;2.80;;;;;;;;;;5028724;28;20537;-81
2022/05/10 11:14:24;;;;;;;3.78;2.67;;;;;;;;;;5012848;28;20091;-83
2022/05/10 11:17:31;;;;;;;4.15;2.75;;;;;;;;;;5011746;28;20126;-84
2022/05/10 11:20:05;;;;;;;4.72;3.10;;;;;;;;;;5012471;28;20053;-82
2022/05/10 11:22:36;;;;;;;6.47;3.17;;;;;;;;;;4996027;28;20120;-82
2022/05/10 11:25:27;;;;;;;5.15;3.25;;;;;;;;;;4980250;28;20593;-82
2022/05/10 11:28:20;;;;;;;6.15;5.07;;;;;;;;;;5013209;28;20049;-82
2022/05/10 11:31:06;;;;;;;6.93;5.82;;;;;;;;;;5012538;28;20044;-83
2022/05/10 11:34:09;;;;;;;9.27;6.07;;;;;;;;;;5012604;28;20084;-82
2022/05/10 11:36:42;;;;;;;8.35;6.20;;;;;;;;;;4995877;28;20492;-82
2022/05/10 11:39:31;;;;;;;9.98;6.53;;;;;;;;;;4993677;28;20427;-82
2022/05/10 11:42:23;;;;;;;7.85;5.93;;;;;;;;;;5012856;28;20049;-82
2022/05/10 11:44:57;;;;;;;8.48;6.03;;;;;;;;;;5012316;28;20526;-82
2022/05/10 11:47:34;;;;;;;8.73;6.50;;;;;;;;;;5011736;28;20397;-81
2022/05/10 11:50:06;;;;;;;9.25;6.32;;;;;;;;;;5011806;28;20053;-83
2022/05/10 11:52:51;;;;;;;;;;;;;;;;;;5028964;28;20869;-82
2022/05/10 11:55:22;;;;;;;9.13;5.88;;;;;;;;;;5028612;28;19983;-82
2022/05/10 11:57:47;;;;;;;7.65;6.07;;;;;;;;;;5011655;28;20034;-82
2022/05/10 12:00:31;;;;;;;7.30;5.80;;;;;;;;;;5027769;28;20631;-82
2022/05/10 12:02:57;;;;;;;7.38;5.43;;;;;;;;;;5011337;28;20034;-83
2022/05/10 12:05:24;;;;;;;8.00;6.03;;;;;;;;;;4995383;28;20496;-82
2022/05/10 12:07:54;;;;;;;7.45;5.70;;;;;;;;;;5011895;28;20072;-82
2022/05/10 12:10:22;;;;;;;7.93;5.28;;;;;;;;;;4995336;28;20045;-82
2022/05/10 12:12:47;;;;;;;6.32;4.55;;;;;;;;;;5010946;28;20037;-83
2022/05/10 12:21:38;;;;;;;5.95;4.53;;;;;;;;;;5016472;28;20050;-83
2022/05/10 12:24:19;;;;;;;7.13;4.60;;;;;;;;;;5011708;28;20040;-83
2022/05/10 12:26:54;;;;;;;6.30;4.80;;;;;;;;;;5012613;28;20124;-83
2022/05/10 12:29:37;;;;;;;6.80;4.55;;;;;;;;;;4995257;28;20045;-82
2022/05/10 12:32:06;;;;;;;4.88;4.15;;;;;;;;;;5011300;28;20095;-83
2022/05/10 12:34:56;;;;;;;6.70;4.10;;;;;;;;;;5011178;28;20563;-82
2022/05/10 12:37:35;;;;;;;7.18;4.70;;;;;;;;;;5011216;28;20037;-82
2022/05/10 12:40:10;;;;;;;6.72;4.20;;;;;;;;;;5011071;28;20041;-82
2022/05/10 12:43:12;;;;;;;6.03;4.30;;;;;;;;;;4994317;28;20424;-82
2022/05/10 12:45:40;;;;;;;6.22;3.90;;;;;;;;;;4994975;28;20072;-83
2022/05/10 12:48:28;;;;;;;5.50;3.85;;;;;;;;;;4994221;28;20049;-82
2022/05/10 12:51:33;;;;;;;6.70;4.82;;;;;;;;;;4994503;28;20042;-83
2022/05/10 12:54:02;;;;;;;7.20;3.80;;;;;;;;;;4990495;28;20042;-83
2022/05/10 12:56:34;;;;;;;7.15;4.05;;;;;;;;;;5019260;28;20511;-83
2022/05/10 12:59:26;;;;;;;5.70;3.75;;;;;;;;;;5011244;28;20495;-83
2022/05/10 13:01:52;;;;;;;6.07;3.25;;;;;;;;;;4992855;28;20034;-83
2022/05/10 13:04:21;;;;;;;3.92;3.20;;;;;;;;;;5027450;28;20424;-83
2022/05/10 13:06:59;;;;;;;6.05;3.72;;;;;;;;;;5027236;28;20092;-83
2022/05/10 13:09:33;;;;;;;5.10;3.13;;;;;;;;;;4995469;28;20041;-82
2022/05/10 13:11:58;;;;;;;4.93;3.47;;;;;;;;;;5010066;28;20121;-82
2022/05/10 13:14:24;;;;;;;6.43;3.70;;;;;;;;;;5011009;28;20133;-83
2022/05/10 13:16:51;;;;;;;3.83;3.05;;;;;;;;;;4993896;28;20038;-83
2022/05/10 13:19:17;;;;;;;5.40;3.45;;;;;;;;;;4978084;28;20092;-82
2022/05/10 13:21:43;;;;;;;4.80;3.00;;;;;;;;;;4978379;28;20125;-83
2022/05/10 13:24:13;;;;;;;4.65;3.22;;;;;;;;;;5010759;28;20091;-83
2022/05/10 13:26:55;;;;;;;5.18;3.65;;;;;;;;;;4994144;28;20037;-82
2022/05/10 13:29:33;;;;;;;4.07;3.13;;;;;;;;;;4994131;28;20085;-82
2022/05/10 13:31:59;;;;;;;4.80;3.17;;;;;;;;;;4977733;28;20034;-82
2022/05/10 13:34:24;;;;;;;3.90;2.80;;;;;;;;;;4994429;28;20510;-83
2022/05/10 13:36:50;;;;;;;4.07;3.15;;;;;;;;;;5009998;28;20456;-83
2022/05/10 13:39:24;;;;;;;4.22;3.03;;;;;;;;;;4993274;28;20046;-83
2022/05/10 13:41:50;;;;;;;5.82;3.45;;;;;;;;;;5010211;28;20034;-83
2022/05/10 13:44:19;;;;;;;4.13;3.00;;;;;;;;;;5010434;28;20037;-82
2022/05/10 13:47:00;;;;;;;3.53;2.75;;;;;;;;;;5026796;28;20034;-83
2022/05/10 13:49:34;;;;;;;5.43;3.55;;;;;;;;;;5009862;28;20042;-83
2022/05/10 13:52:03;;;;;;;5.03;2.92;;;;;;;;;;5016361;28;20041;-83
2022/05/10 13:54:38;;;;;;;6.03;2.72;;;;;;;;;;5014510;28;20049;-82
2022/05/10 13:57:14;;;;;;;4.13;2.95;;;;;;;;;;4995857;28;20046;-82
2022/05/10 13:59:39;;;;;;;4.15;2.67;;;;;;;;;;5027198;28;20044;-83
2022/05/10 14:02:06;;;;;;;3.92;2.85;;;;;;;;;;5026648;28;20034;-83
2022/05/10 14:04:32;;;;;;;5.35;2.70;;;;;;;;;;5010474;28;20038;-83
2022/05/10 14:07:03;;;;;;;4.47;3.28;;;;;;;;;;5012969;28;20436;-83
2022/05/10 14:09:34;;;;;;;9.50;4.70;;;;;;;;;;5031269;28;20049;-83
2022/05/10 14:12:00;;;;;;;11.57;5.97;;;;;;;;;;5029907;28;20038;-83
2022/05/10 14:14:28;;;;;;;6.43;4.82;;;;;;;;;;5029715;28;20408;-83
2022/05/10 14:16:57;;;;;;;5.45;4.47;;;;;;;;;;4997493;28;20108;-83
2022/05/10 14:19:33;;;;;;;7.35;4.53;;;;;;;;;;4997055;28;20128;-83
2022/05/10 14:22:04;;;;;;;8.30;5.03;;;;;;;;;;4996691;28;20046;-83
2022/05/10 14:24:34;;;;;;;7.15;3.63;;;;;;;;;;4997539;28;20038;-82
2022/05/10 14:27:23;;;;;;;7.93;3.90;;;;;;;;;;5013233;28;20053;-83
2022/05/10 14:29:57;;;;;;;10.05;3.45;;;;;;;;;;4984102;28;20108;-83
2022/05/10 14:32:22;;;;;;;11.38;7.35;;;;;;;;;;4997648;28;20610;-83
2022/05/10 14:34:51;;;;;;;11.18;6.95;;;;;;;;;;5014608;28;20046;-83
2022/05/10 14:37:28;;;;;;;6.82;3.85;;;;;;;;;;4996947;28;20034;-83
2022/05/10 14:39:54;;;;;;;8.77;5.15;;;;;;;;;;4993730;28;20030;-82
2022/05/10 14:42:38;;;;;;;11.32;7.22;;;;;;;;;;4992927;28;20061;-83
2022/05/10 14:45:15;;;;;;;11.32;7.45;;;;;;;;;;4978081;28;20113;-82
2022/05/10 14:47:40;;;;;;;9.52;7.25;;;;;;;;;;4984302;28;20575;-82
2022/05/10 14:50:06;;;;;;;12.55;7.40;;;;;;;;;;4993193;28;20122;-82
2022/05/10 14:52:34;;;;;;;11.35;7.55;;;;;;;;;;4962086;28;20034;-82
2022/05/10 14:55:00;;;;;;;9.07;6.70;;;;;;;;;;4995854;28;20037;-82
2022/05/10 14:57:48;;;;;;;10.63;7.40;;;;;;;;;;4980059;28;20045;-82
2022/05/10 15:00:32;;;;;;;9.48;6.45;;;;;;;;;;4980899;28;20038;-82
2022/05/10 15:03:16;;;;;;;17.00;9.40;;;;;;;;;;4982578;28;20104;-83
2022/05/10 15:05:42;;;;;;;9.88;6.00;;;;;;;;;;4995656;28;20041;-83
2022/05/10 15:08:08;;;;;;;9.38;5.97;;;;;;;;;;4980512;28;20052;-83
2022/05/10 15:10:34;;;;;;;10.30;7.35;;;;;;;;;;4980230;28;20109;-82
2022/05/10 15:13:08;;;;;;;8.27;6.30;;;;;;;;;;4979780;28;20501;-83
2022/05/10 15:16:00;;;;;;;7.68;5.50;;;;;;;;;;4997579;28;20076;-81
2022/05/10 15:21:14;;;;;;;8.85;6.43;;;;;;;;;;4998778;28;20030;-82
2022/05/10 15:23:40;;;;;;;9.48;6.68;;;;;;;;;;4980122;28;20459;-83
2022/05/10 15:26:08;;;;;;;9.88;6.68;;;;;;;;;;4979536;28;20025;-82
2022/05/10 15:28:33;;;;;;;8.60;6.15;;;;;;;;;;4996414;28;20099;-82
2022/05/10 15:30:58;;;;;;;9.35;5.60;;;;;;;;;;4996069;28;20456;-82